createdAt,value
2022-09-28T00:02:30.602Z,21.25
2022-09-28T00:12:33.803Z,22.63
2022-09-28T00:22:38.362Z,21.60
2022-09-28T00:32:41.327Z,20.43
2022-09-28T00:42:47.083Z,21.73
2022-09-28T00:52:54.391Z,20.93
2022-09-28T01:03:02.293Z,21.80
2022-09-28T01:13:05.637Z,28.55
2022-09-28T01:23:33.899Z,24.35
2022-09-28T01:33:43.511Z,26.42
2022-09-28T01:43:51.041Z,33.00
2022-09-28T01:54:01.607Z,34.80
2022-09-28T02:04:11.428Z,31.55
2022-09-28T02:14:19.771Z,25.77
2022-09-28T02:24:28.863Z,21.25
2022-09-28T02:34:34.385Z,15.82
2022-09-28T02:45:01.334Z,14.05
2022-09-28T02:55:22.246Z,14.48
2022-09-28T03:05:33.952Z,11.75
2022-09-28T03:15:38.646Z,13.15
2022-09-28T03:25:41.683Z,9.63
2022-09-28T03:35:50.350Z,9.10
2022-09-28T03:45:55.299Z,10.05
2022-09-28T03:56:05.087Z,10.02
2022-09-28T04:06:08.888Z,7.45
2022-09-28T04:16:13.465Z,6.18
2022-09-28T04:26:23.050Z,4.32
2022-09-28T04:46:30.312Z,4.70
2022-09-28T04:56:55.484Z,4.97
2022-09-28T05:06:58.727Z,5.10
2022-09-28T05:17:03.150Z,4.93
2022-09-28T05:27:44.249Z,4.90
2022-09-28T05:38:07.037Z,6.57
2022-09-28T05:48:10.165Z,7.70
2022-09-28T05:58:15.033Z,10.75
2022-09-28T06:08:18.075Z,11.33
2022-09-28T06:18:26.410Z,11.60
2022-09-28T06:28:49.894Z,13.67
2022-09-28T06:38:54.709Z,18.10
2022-09-28T06:48:59.208Z,21.65
2022-09-28T06:59:22.370Z,21.23
2022-09-28T07:09:33.148Z,20.13
2022-09-28T07:19:52.752Z,20.10
2022-09-28T07:29:56.191Z,14.90
2022-09-28T07:40:29.838Z,14.07
2022-09-28T07:50:33.654Z,10.60
2022-09-28T08:00:50.464Z,6.90
2022-09-28T08:21:42.709Z,10.10
2022-09-28T08:31:48.930Z,8.55
2022-09-28T08:42:31.020Z,6.90
2022-09-28T08:52:55.081Z,6.72
2022-09-28T09:03:11.705Z,5.50
2022-09-28T09:13:39.691Z,5.88
2022-09-28T09:23:56.128Z,5.50
2022-09-28T09:34:14.171Z,5.15
2022-09-28T09:44:52.399Z,4.68
2022-09-28T09:55:21.247Z,4.15
2022-09-28T10:05:33.613Z,3.67
2022-09-28T10:15:37.629Z,3.35
2022-09-28T10:26:01.765Z,2.92
2022-09-28T10:36:08.568Z,3.60
2022-09-28T10:46:16.131Z,3.85
2022-09-28T10:56:28.258Z,3.80
2022-09-28T11:06:43.061Z,2.90
2022-09-28T11:16:48.187Z,2.25
2022-09-28T11:26:56.580Z,1.20
2022-09-28T11:37:33.394Z,1.95
2022-09-28T11:47:49.028Z,2.40
2022-09-28T11:58:01.588Z,2.00
2022-09-28T12:08:14.926Z,2.60
2022-09-28T12:18:50.287Z,2.30
2022-09-28T12:28:59.466Z,1.50
2022-09-28T12:39:21.846Z,1.75
2022-09-28T12:50:37.095Z,1.60
2022-09-28T13:00:22.439Z,1.15
2022-09-28T13:10:34.983Z,1.08
2022-09-28T13:21:04.935Z,3.28
2022-09-28T13:31:12.429Z,0.80
2022-09-28T13:41:23.527Z,0.60
2022-09-28T13:51:44.104Z,0.50
2022-09-28T14:01:56.047Z,0.40
2022-09-28T14:12:02.466Z,0.88
2022-09-28T14:22:19.318Z,1.05
2022-09-28T14:32:26.501Z,1.25
2022-09-28T14:42:29.661Z,0.98
2022-09-28T14:52:46.295Z,0.50
2022-09-28T15:02:52.825Z,0.50
2022-09-28T15:12:57.668Z,0.22
2022-09-28T15:33:29.105Z,0.40
2022-09-28T15:43:38.106Z,0.32
2022-09-28T15:53:58.462Z,0.90
2022-09-28T16:04:02.081Z,0.30
2022-09-28T16:14:09.024Z,0.40
2022-09-28T16:24:21.862Z,0.40
2022-09-28T16:34:28.759Z,0.40
2022-09-28T16:44:33.204Z,0.65
2022-09-28T16:54:55.239Z,1.50
2022-09-28T17:04:58.940Z,1.52
2022-09-28T17:15:03.349Z,0.90
2022-09-28T17:25:10.135Z,0.93
2022-09-28T17:35:24.545Z,1.00
2022-09-28T17:45:31.308Z,1.05
2022-09-28T17:55:37.375Z,5.57
2022-09-28T18:05:40.792Z,2.60
2022-09-28T18:15:45.345Z,3.95
2022-09-28T18:25:49.425Z,2.40
2022-09-28T18:35:55.468Z,5.70
2022-09-28T18:45:58.691Z,7.15
2022-09-28T18:56:08.427Z,11.57
2022-09-28T19:06:13.299Z,11.82
2022-09-28T19:16:20.812Z,6.50
2022-09-28T19:26:26.279Z,10.10
2022-09-28T19:36:31.234Z,12.73
2022-09-28T19:46:35.195Z,6.97
2022-09-28T19:56:39.653Z,4.50
2022-09-28T20:06:42.956Z,3.33
2022-09-28T20:16:47.565Z,12.73
2022-09-28T20:26:50.750Z,7.10
2022-09-28T20:36:55.259Z,7.70
2022-09-28T20:46:58.304Z,10.47
2022-09-28T20:57:03.000Z,6.47
2022-09-28T21:07:05.937Z,6.30
2022-09-28T21:17:11.581Z,6.25
2022-09-28T21:27:14.603Z,7.22
2022-09-28T21:37:19.084Z,7.40
2022-09-28T21:47:22.141Z,5.07
2022-09-28T21:57:26.449Z,8.63
2022-09-28T22:07:29.444Z,8.43
2022-09-28T22:17:33.908Z,9.80
2022-09-28T22:27:36.841Z,11.90
2022-09-28T22:37:42.368Z,11.80
2022-09-28T22:47:45.403Z,13.03
2022-09-28T22:57:49.651Z,14.63
2022-09-28T23:07:52.563Z,11.07
2022-09-28T23:17:56.919Z,18.85
2022-09-28T23:27:59.833Z,21.60
2022-09-28T23:38:04.315Z,22.27
2022-09-28T23:48:07.400Z,22.63
2022-09-28T23:58:12.329Z,22.65
